createdAt,value
2019-02-08T00:03:50.673Z,2.13
2019-02-08T00:08:58.149Z,1.50
2019-02-08T00:14:04.867Z,1.53
2019-02-08T00:19:11.049Z,2.00
2019-02-08T00:24:16.485Z,2.17
2019-02-08T00:29:23.458Z,1.53
2019-02-08T00:34:29.322Z,1.67
2019-02-08T00:39:35.496Z,1.60
2019-02-08T00:44:42.790Z,1.77
2019-02-08T00:49:49.077Z,1.77
2019-02-08T00:54:57.614Z,1.90
2019-02-08T01:00:03.575Z,1.83
2019-02-08T01:05:12.361Z,1.73
2019-02-08T01:10:23.684Z,1.70
2019-02-08T01:15:30.531Z,1.63
2019-02-08T01:20:37.069Z,2.20
2019-02-08T01:25:44.922Z,2.13
2019-02-08T01:30:50.551Z,2.53
2019-02-08T01:35:56.851Z,2.10
2019-02-08T01:41:03.179Z,1.90
2019-02-08T01:46:10.446Z,2.03
2019-02-08T01:51:17.642Z,1.80
2019-02-08T01:56:23.208Z,1.93
2019-02-08T02:01:29.311Z,1.50
2019-02-08T02:06:35.993Z,1.50
2019-02-08T02:11:42.165Z,1.80
2019-02-08T02:16:48.281Z,2.00
2019-02-08T02:21:53.704Z,1.63
2019-02-08T02:26:58.401Z,1.80
2019-02-08T02:32:05.461Z,1.40
2019-02-08T02:37:12.130Z,1.67
2019-02-08T02:42:19.442Z,1.27
2019-02-08T02:47:25.079Z,1.53
2019-02-08T02:52:31.178Z,1.60
2019-02-08T02:57:36.860Z,1.33
2019-02-08T03:02:43.217Z,1.37
2019-02-08T03:07:49.613Z,1.93
2019-02-08T03:12:56.672Z,1.40
2019-02-08T03:18:02.952Z,1.50
2019-02-08T03:23:11.066Z,1.83
2019-02-08T03:28:18.792Z,1.60
2019-02-08T03:33:25.010Z,1.90
2019-02-08T03:38:30.536Z,2.00
2019-02-08T03:43:35.776Z,2.13
2019-02-08T03:48:42.881Z,2.10
2019-02-08T03:53:48.828Z,2.27
2019-02-08T03:58:54.661Z,1.70
2019-02-08T04:04:17.861Z,1.63
2019-02-08T04:09:23.387Z,2.07
2019-02-08T04:14:30.161Z,1.93
2019-02-08T04:19:36.279Z,1.90
2019-02-08T04:24:42.489Z,2.10
2019-02-08T04:29:51.317Z,2.10
2019-02-08T04:34:56.689Z,2.10
2019-02-08T04:40:02.856Z,2.30
2019-02-08T04:45:09.852Z,2.10
2019-02-08T04:50:17.975Z,2.20
2019-02-08T04:55:24.130Z,2.57
2019-02-08T05:00:35.572Z,2.00
2019-02-08T05:05:42.654Z,2.37
2019-02-08T05:10:48.057Z,2.30
2019-02-08T05:15:53.852Z,2.20
2019-02-08T05:21:02.168Z,2.80
2019-02-08T05:26:07.632Z,2.40
2019-02-08T05:31:14.097Z,2.63
2019-02-08T05:36:19.779Z,2.57
2019-02-08T05:41:26.168Z,2.77
2019-02-08T05:46:33.589Z,3.10
2019-02-08T05:51:39.618Z,2.63
2019-02-08T05:56:44.738Z,2.67
2019-02-08T06:01:51.707Z,3.00
2019-02-08T06:06:58.731Z,3.30
2019-02-08T06:12:03.810Z,2.70
2019-02-08T06:17:09.803Z,3.63
2019-02-08T06:22:15.825Z,2.67
2019-02-08T06:27:22.350Z,3.50
2019-02-08T06:32:27.960Z,3.70
2019-02-08T06:37:34.028Z,2.97
2019-02-08T06:42:39.840Z,3.23
2019-02-08T06:47:45.070Z,3.10
2019-02-08T06:52:50.945Z,2.57
2019-02-08T06:58:08.556Z,3.10
2019-02-08T07:03:49.268Z,3.13
2019-02-08T07:09:13.537Z,2.77
2019-02-08T07:14:43.616Z,2.40
2019-02-08T07:20:14.867Z,2.67
2019-02-08T07:25:33.653Z,2.00
2019-02-08T07:30:58.772Z,1.93
2019-02-08T07:36:27.618Z,2.37
2019-02-08T07:42:05.506Z,2.17
2019-02-08T07:47:34.306Z,2.30
2019-02-08T07:52:58.714Z,2.07
2019-02-08T07:58:23.555Z,2.20
2019-02-08T08:04:01.463Z,2.53
2019-02-08T08:09:33.037Z,2.23
2019-02-08T08:14:59.351Z,1.93
2019-02-08T08:20:24.953Z,2.40
2019-02-08T08:26:07.116Z,2.40
2019-02-08T08:31:38.926Z,2.10
2019-02-08T08:37:04.724Z,1.87
2019-02-08T08:42:38.052Z,2.20
2019-02-08T08:48:33.155Z,2.50
2019-02-08T08:54:15.027Z,2.20
2019-02-08T09:00:05.642Z,1.90
2019-02-08T09:05:55.949Z,2.00
2019-02-08T09:11:43.930Z,2.00
2019-02-08T09:17:24.297Z,1.97
2019-02-08T09:23:16.969Z,2.03
2019-02-08T09:29:09.964Z,1.90
2019-02-08T09:34:52.296Z,1.70
2019-02-08T09:40:26.298Z,1.50
2019-02-08T09:46:31.081Z,1.70
2019-02-08T09:52:31.187Z,1.43
2019-02-08T09:58:21.317Z,1.27
2019-02-08T10:04:12.363Z,1.30
2019-02-08T10:10:06.964Z,1.67
2019-02-08T10:15:55.323Z,1.30
2019-02-08T10:21:32.465Z,1.63
2019-02-08T10:27:20.800Z,1.50
2019-02-08T10:33:21.473Z,1.40
2019-02-08T10:39:06.019Z,1.60
2019-02-08T10:44:56.056Z,2.03
2019-02-08T10:50:56.960Z,2.00
2019-02-08T10:56:42.423Z,1.10
2019-02-08T11:02:52.870Z,1.00
2019-02-08T11:08:34.293Z,1.20
2019-02-08T11:14:25.894Z,1.60
2019-02-08T11:19:29.470Z,1.30
2019-02-08T11:24:36.848Z,1.60
2019-02-08T11:29:43.758Z,2.00
2019-02-08T11:34:49.488Z,2.20
2019-02-08T11:39:56.712Z,1.23
2019-02-08T11:45:03.561Z,1.17
2019-02-08T11:50:13.453Z,1.40
2019-02-08T11:55:21.355Z,1.13
2019-02-08T12:00:35.081Z,1.43
2019-02-08T12:05:40.309Z,1.00
2019-02-08T12:10:46.494Z,1.10
2019-02-08T12:15:52.507Z,1.60
2019-02-08T12:20:58.462Z,1.07
2019-02-08T12:26:04.814Z,1.20
2019-02-08T12:31:11.541Z,1.30
2019-02-08T12:36:17.778Z,1.07
2019-02-08T12:41:23.845Z,1.10
2019-02-08T12:46:29.675Z,0.90
2019-02-08T12:51:35.395Z,1.47
2019-02-08T12:56:45.591Z,1.20
2019-02-08T13:01:50.625Z,0.90
2019-02-08T13:06:55.641Z,1.10
2019-02-08T13:12:03.041Z,1.00
2019-02-08T13:17:08.698Z,1.07
2019-02-08T13:22:14.666Z,0.63
2019-02-08T13:27:23.524Z,1.03
2019-02-08T13:32:29.493Z,0.90
2019-02-08T13:37:35.991Z,1.03
2019-02-08T13:42:41.172Z,0.80
2019-02-08T13:47:50.340Z,0.93
2019-02-08T13:52:57.660Z,0.90
2019-02-08T13:58:03.694Z,0.80
2019-02-08T14:03:11.559Z,0.80
2019-02-08T14:08:17.470Z,1.20
2019-02-08T14:13:23.642Z,1.00
2019-02-08T14:18:29.005Z,0.80
2019-02-08T14:23:34.884Z,1.00
2019-02-08T14:28:41.710Z,0.90
2019-02-08T14:33:49.004Z,0.90
2019-02-08T14:38:56.226Z,1.03
2019-02-08T14:44:03.637Z,0.83
2019-02-08T14:49:10.231Z,0.90
2019-02-08T14:54:18.002Z,0.97
2019-02-08T14:59:23.519Z,1.17
2019-02-08T15:04:29.843Z,1.20
2019-02-08T15:09:37.378Z,1.03
2019-02-08T15:14:45.303Z,1.40
2019-02-08T15:19:51.085Z,0.93
2019-02-08T15:24:56.590Z,1.47
2019-02-08T15:30:02.905Z,1.23
2019-02-08T15:35:10.312Z,1.27
2019-02-08T15:40:24.755Z,1.47
2019-02-08T15:45:32.853Z,1.33
2019-02-08T15:50:39.358Z,1.50
2019-02-08T15:55:46.401Z,1.30
2019-02-08T16:00:52.914Z,1.40
2019-02-08T16:05:58.904Z,1.30
2019-02-08T16:11:04.266Z,1.50
2019-02-08T16:16:11.597Z,1.30
2019-02-08T16:21:17.952Z,1.57
2019-02-08T16:26:24.761Z,1.20
2019-02-08T16:31:31.172Z,1.57
2019-02-08T16:36:36.838Z,1.60
2019-02-08T16:41:42.970Z,1.30
2019-02-08T16:46:50.001Z,1.40
2019-02-08T16:51:57.158Z,1.30
2019-02-08T16:57:09.712Z,1.77
2019-02-08T17:02:18.473Z,1.70
2019-02-08T17:07:26.830Z,1.43
2019-02-08T17:12:32.321Z,1.37
2019-02-08T17:17:39.330Z,1.90
2019-02-08T17:22:46.060Z,1.37
2019-02-08T17:27:55.324Z,2.00
2019-02-08T17:32:59.416Z,1.63
2019-02-08T17:38:06.170Z,1.73
2019-02-08T17:43:11.782Z,1.80
2019-02-08T17:48:19.012Z,1.60
2019-02-08T17:53:26.989Z,1.90
2019-02-08T17:58:33.538Z,1.90
2019-02-08T18:03:38.964Z,1.60
2019-02-08T18:08:45.253Z,1.90
2019-02-08T18:13:51.705Z,1.80
2019-02-08T18:18:56.894Z,1.73
2019-02-08T18:24:05.518Z,1.53
2019-02-08T18:29:10.915Z,1.87
2019-02-08T18:34:18.106Z,1.53
2019-02-08T18:39:24.534Z,1.53
2019-02-08T18:44:30.490Z,1.60
2019-02-08T18:49:35.828Z,1.60
2019-02-08T18:54:45.137Z,1.80
2019-02-08T18:59:50.640Z,1.93
2019-02-08T19:04:58.297Z,1.67
2019-02-08T19:10:04.650Z,1.80
2019-02-08T19:15:11.741Z,1.70
2019-02-08T19:20:20.106Z,1.90
2019-02-08T19:25:36.539Z,1.50
2019-02-08T19:30:42.973Z,1.30
2019-02-08T19:35:48.895Z,1.60
2019-02-08T19:40:56.363Z,1.30
2019-02-08T19:46:01.981Z,1.67
2019-02-08T19:51:08.961Z,1.83
2019-02-08T19:56:15.003Z,1.60
2019-02-08T20:01:26.408Z,1.70
2019-02-08T20:06:32.247Z,1.57
2019-02-08T20:11:37.607Z,1.30
2019-02-08T20:16:44.974Z,1.57
2019-02-08T20:21:51.525Z,1.50
2019-02-08T20:26:57.310Z,1.50
2019-02-08T20:32:03.004Z,1.53
2019-02-08T20:37:10.338Z,1.30
2019-02-08T20:42:16.017Z,1.50
2019-02-08T20:47:22.660Z,1.10
2019-02-08T20:52:28.504Z,1.70
2019-02-08T20:57:36.885Z,1.30
2019-02-08T21:02:46.015Z,1.40
2019-02-08T21:07:52.758Z,1.10
2019-02-08T21:13:00.025Z,1.23
2019-02-08T21:18:36.347Z,1.30
2019-02-08T21:23:43.707Z,1.43
2019-02-08T21:28:57.954Z,1.70
2019-02-08T21:34:01.961Z,1.60
2019-02-08T21:39:10.156Z,1.40
2019-02-08T21:44:18.093Z,1.73
2019-02-08T21:49:24.885Z,1.40
2019-02-08T21:54:32.176Z,1.40
2019-02-08T21:59:37.573Z,1.30
2019-02-08T22:04:43.924Z,1.60
2019-02-08T22:09:50.573Z,1.20
2019-02-08T22:14:57.769Z,1.43
2019-02-08T22:20:07.675Z,1.57
2019-02-08T22:25:16.702Z,1.53
2019-02-08T22:30:24.681Z,1.40
2019-02-08T22:35:30.733Z,1.20
2019-02-08T22:40:37.094Z,1.50
2019-02-08T22:45:43.571Z,1.40
2019-02-08T22:50:50.038Z,1.27
2019-02-08T22:55:57.641Z,1.50
2019-02-08T23:01:27.242Z,1.37
2019-02-08T23:06:33.647Z,1.30
2019-02-08T23:11:40.133Z,1.50
2019-02-08T23:16:48.551Z,1.40
2019-02-08T23:21:55.549Z,1.23
2019-02-08T23:27:01.410Z,1.57
2019-02-08T23:32:09.260Z,1.80
2019-02-08T23:37:15.641Z,1.50
2019-02-08T23:42:23.450Z,1.90
2019-02-08T23:47:30.780Z,1.53
2019-02-08T23:52:37.517Z,1.90
2019-02-08T23:57:43.638Z,1.43
